createdAt,value
2023-02-06T00:00:50.907Z,59.00
2023-02-06T00:03:37.569Z,56.80
2023-02-06T00:06:04.306Z,57.30
2023-02-06T00:08:31.122Z,58.80
2023-02-06T00:10:57.712Z,62.10
2023-02-06T00:13:24.277Z,64.90
2023-02-06T00:15:50.934Z,63.00
2023-02-06T00:18:17.637Z,64.70
2023-02-06T00:20:44.176Z,64.60
2023-02-06T00:23:11.341Z,64.60
2023-02-06T00:25:38.055Z,61.40
2023-02-06T00:28:04.968Z,64.60
2023-02-06T00:30:31.639Z,64.10
2023-02-06T00:32:58.197Z,66.80
2023-02-06T00:35:25.034Z,66.70
2023-02-06T00:37:51.702Z,68.00
2023-02-06T00:40:18.412Z,65.70
2023-02-06T00:42:45.012Z,63.40
2023-02-06T00:45:11.563Z,62.20
2023-02-06T00:47:38.222Z,59.80
2023-02-06T00:50:05.612Z,61.30
2023-02-06T00:52:32.194Z,56.40
2023-02-06T00:54:58.778Z,53.90
2023-02-06T00:57:25.324Z,53.40
2023-02-06T00:59:53.754Z,51.30
2023-02-06T01:02:20.939Z,48.80
2023-02-06T01:04:47.480Z,53.20
2023-02-06T01:07:14.095Z,53.20
2023-02-06T01:09:40.952Z,53.90
2023-02-06T01:12:07.621Z,54.90
2023-02-06T01:14:34.178Z,54.80
2023-02-06T01:17:00.711Z,52.10
2023-02-06T01:19:27.266Z,53.40
2023-02-06T01:21:53.763Z,51.40
2023-02-06T01:24:20.746Z,50.60
2023-02-06T01:26:47.222Z,50.20
2023-02-06T01:29:13.774Z,52.00
2023-02-06T01:31:40.352Z,49.60
2023-02-06T01:34:07.519Z,50.10
2023-02-06T01:36:34.121Z,52.70
2023-02-06T01:39:00.731Z,52.20
2023-02-06T01:41:27.419Z,51.70
2023-02-06T01:44:07.488Z,51.00
2023-02-06T01:46:34.097Z,56.00
2023-02-06T01:49:01.057Z,54.90
2023-02-06T01:51:28.853Z,55.00
2023-02-06T01:54:02.637Z,56.00
2023-02-06T01:56:38.110Z,57.40
2023-02-06T01:59:04.804Z,59.00
2023-02-06T02:01:32.200Z,59.80
2023-02-06T02:04:08.639Z,53.20
2023-02-06T02:06:35.389Z,49.10
2023-02-06T02:09:03.299Z,50.00
2023-02-06T02:11:37.199Z,48.50
2023-02-06T02:14:07.564Z,46.40
2023-02-06T02:16:51.753Z,46.40
2023-02-06T02:19:30.211Z,42.90
2023-02-06T02:22:23.592Z,44.20
2023-02-06T02:25:21.042Z,44.80
2023-02-06T02:28:33.740Z,47.20
2023-02-06T02:31:55.741Z,50.10
2023-02-06T02:35:01.840Z,46.80
2023-02-06T02:38:07.986Z,48.70
2023-02-06T02:40:55.519Z,52.70
2023-02-06T02:44:05.576Z,52.60
2023-02-06T02:46:42.857Z,53.90
2023-02-06T02:49:20.460Z,54.90
2023-02-06T02:51:48.592Z,50.60
2023-02-06T02:54:15.138Z,51.50
2023-02-06T02:56:41.951Z,57.00
2023-02-06T02:59:28.861Z,57.40
2023-02-06T03:02:03.678Z,56.40
2023-02-06T03:04:37.921Z,59.10
2023-02-06T03:07:09.651Z,55.90
2023-02-06T03:09:46.169Z,56.60
2023-02-06T03:12:41.836Z,54.00
2023-02-06T03:15:43.359Z,54.50
2023-02-06T03:18:22.587Z,55.70
2023-02-06T03:20:49.444Z,54.00
2023-02-06T03:23:23.470Z,55.90
2023-02-06T03:25:52.735Z,55.40
2023-02-06T03:28:35.711Z,53.90
2023-02-06T03:31:06.799Z,51.60
2023-02-06T03:33:39.967Z,54.60
2023-02-06T03:36:09.415Z,57.30
2023-02-06T03:38:36.189Z,56.50
2023-02-06T03:41:03.536Z,56.20
2023-02-06T03:43:30.231Z,59.60
2023-02-06T03:46:02.392Z,54.00
2023-02-06T03:48:40.320Z,54.30
2023-02-06T03:51:17.386Z,56.30
2023-02-06T03:53:45.201Z,54.80
2023-02-06T03:56:37.877Z,54.30
2023-02-06T03:59:04.581Z,54.90
2023-02-06T04:01:31.638Z,57.30
2023-02-06T04:03:58.462Z,62.40
2023-02-06T04:06:25.175Z,62.10
2023-02-06T04:08:51.774Z,59.30
2023-02-06T04:11:18.406Z,56.60
2023-02-06T04:13:47.468Z,53.90
2023-02-06T04:16:13.973Z,51.00
2023-02-06T04:18:40.541Z,52.00
2023-02-06T04:21:07.456Z,50.80
2023-02-06T04:23:34.301Z,48.30
2023-02-06T04:26:01.144Z,52.10
2023-02-06T04:28:27.790Z,51.60
2023-02-06T04:30:54.415Z,49.00
2023-02-06T04:33:21.067Z,50.70
2023-02-06T04:35:48.389Z,50.70
2023-02-06T04:38:15.123Z,47.50
2023-02-06T04:40:42.111Z,49.20
2023-02-06T04:43:08.947Z,50.30
2023-02-06T04:45:35.931Z,48.50
2023-02-06T04:48:02.725Z,50.40
2023-02-06T04:50:31.287Z,49.20
2023-02-06T04:52:58.029Z,49.50
2023-02-06T04:55:24.546Z,48.80
2023-02-06T04:57:51.146Z,43.80
2023-02-06T05:00:17.860Z,47.00
2023-02-06T05:02:44.412Z,50.90
2023-02-06T05:05:11.228Z,49.90
2023-02-06T05:07:37.839Z,51.10
2023-02-06T05:10:05.168Z,49.60
2023-02-06T05:12:31.776Z,49.10
2023-02-06T05:14:58.310Z,46.20
2023-02-06T05:17:24.900Z,49.90
2023-02-06T05:19:51.461Z,48.20
2023-02-06T05:22:18.042Z,51.50
2023-02-06T05:24:44.649Z,47.80
2023-02-06T05:27:11.168Z,51.10
2023-02-06T05:29:37.831Z,47.30
2023-02-06T05:32:04.646Z,47.40
2023-02-06T05:34:31.206Z,46.20
2023-02-06T05:36:57.836Z,44.60
2023-02-06T05:39:25.947Z,46.90
2023-02-06T05:41:52.522Z,44.80
2023-02-06T05:44:19.107Z,47.30
2023-02-06T05:46:47.691Z,46.60
2023-02-06T05:49:14.796Z,44.00
2023-02-06T05:51:41.330Z,44.80
2023-02-06T05:54:07.935Z,43.90
2023-02-06T05:56:34.500Z,44.50
2023-02-06T05:59:01.449Z,44.20
2023-02-06T06:01:28.571Z,43.90
2023-02-06T06:03:55.825Z,42.70
2023-02-06T06:06:22.411Z,43.50
2023-02-06T06:08:48.880Z,44.10
2023-02-06T06:11:15.452Z,48.70
2023-02-06T06:13:42.009Z,46.90
2023-02-06T06:16:08.549Z,50.80
2023-02-06T06:18:35.182Z,53.00
2023-02-06T06:21:01.812Z,53.60
2023-02-06T06:23:28.431Z,52.50
2023-02-06T06:25:54.999Z,47.60
2023-02-06T06:28:21.504Z,47.90
2023-02-06T06:30:48.022Z,43.50
2023-02-06T06:33:15.828Z,45.60
2023-02-06T06:35:42.397Z,53.10
2023-02-06T06:38:09.025Z,58.00
2023-02-06T06:40:35.584Z,68.20
2023-02-06T06:43:03.334Z,71.80
2023-02-06T06:45:29.885Z,70.40
2023-02-06T06:47:56.806Z,73.80
2023-02-06T06:50:23.577Z,75.90
2023-02-06T06:52:50.113Z,79.10
2023-02-06T06:55:18.844Z,97.50
2023-02-06T06:57:46.634Z,91.40
2023-02-06T07:00:14.802Z,93.80
2023-02-06T07:02:42.415Z,88.30
2023-02-06T07:05:09.655Z,94.60
2023-02-06T07:07:38.342Z,75.00
2023-02-06T07:10:07.005Z,78.40
2023-02-06T07:12:33.762Z,86.10
2023-02-06T07:15:00.375Z,88.70
2023-02-06T07:17:27.020Z,87.80
2023-02-06T07:19:53.651Z,78.20
2023-02-06T07:22:21.011Z,82.50
2023-02-06T07:24:48.172Z,79.80
2023-02-06T07:27:15.380Z,77.10
2023-02-06T07:29:42.223Z,91.60
2023-02-06T07:32:09.508Z,101.90
2023-02-06T07:34:36.276Z,103.80
2023-02-06T07:37:04.056Z,96.40
2023-02-06T07:39:30.735Z,97.80
2023-02-06T07:41:57.223Z,98.70
2023-02-06T07:44:23.784Z,96.10
2023-02-06T07:46:52.157Z,99.60
2023-02-06T07:49:18.711Z,108.20
2023-02-06T07:51:45.846Z,113.00
2023-02-06T07:54:12.705Z,99.00
2023-02-06T07:56:39.680Z,96.30
2023-02-06T07:59:07.162Z,102.60
2023-02-06T08:01:33.912Z,106.10
2023-02-06T08:04:00.680Z,112.20
2023-02-06T08:06:27.436Z,116.90
2023-02-06T08:08:55.789Z,100.10
2023-02-06T08:11:25.456Z,98.20
2023-02-06T08:13:52.107Z,98.70
2023-02-06T08:16:21.703Z,92.50
2023-02-06T08:18:48.867Z,96.70
2023-02-06T08:21:20.189Z,78.00
2023-02-06T08:23:47.916Z,62.60
2023-02-06T08:26:18.180Z,50.90
2023-02-06T08:28:46.929Z,56.70
2023-02-06T08:31:18.915Z,41.80
2023-02-06T08:33:45.994Z,39.70
2023-02-06T08:36:14.109Z,37.10
2023-02-06T08:38:41.332Z,34.10
2023-02-06T08:41:21.849Z,34.60
2023-02-06T08:43:50.459Z,33.50
2023-02-06T08:46:19.219Z,33.90
2023-02-06T08:48:46.127Z,32.60
2023-02-06T08:51:13.790Z,32.80
2023-02-06T08:53:40.764Z,29.30
2023-02-06T08:56:11.566Z,30.00
2023-02-06T08:58:38.940Z,29.90
2023-02-06T09:01:13.061Z,30.50
2023-02-06T09:03:41.158Z,30.90
2023-02-06T09:06:10.226Z,30.90
2023-02-06T09:08:38.910Z,30.50
2023-02-06T09:11:07.110Z,28.40
2023-02-06T09:13:34.225Z,31.30
2023-02-06T09:16:00.988Z,29.50
2023-02-06T09:18:27.669Z,30.70
2023-02-06T09:21:10.868Z,30.00
2023-02-06T09:23:39.433Z,30.40
2023-02-06T09:26:06.224Z,29.90
2023-02-06T09:28:33.376Z,27.80
2023-02-06T09:31:00.066Z,30.40
2023-02-06T09:33:26.915Z,29.60
2023-02-06T09:36:03.455Z,30.70
2023-02-06T09:38:30.599Z,28.20
2023-02-06T09:40:59.279Z,28.80
2023-02-06T09:43:26.469Z,28.20
2023-02-06T09:46:00.299Z,30.00
2023-02-06T09:48:30.185Z,26.80
2023-02-06T09:51:21.750Z,28.60
2023-02-06T09:53:57.112Z,29.30
2023-02-06T09:56:36.918Z,32.40
2023-02-06T09:59:21.561Z,32.40
2023-02-06T10:02:05.603Z,32.30
2023-02-06T10:04:52.709Z,33.80
2023-02-06T10:07:32.606Z,27.60
2023-02-06T10:10:05.540Z,26.90
2023-02-06T10:12:40.552Z,36.50
2023-02-06T10:15:20.251Z,30.60
2023-02-06T10:17:57.389Z,32.30
2023-02-06T10:20:33.529Z,31.30
2023-02-06T10:23:18.086Z,27.30
2023-02-06T10:26:07.362Z,26.30
2023-02-06T10:28:34.800Z,16.90
2023-02-06T10:31:38.579Z,20.10
2023-02-06T10:34:19.976Z,16.40
2023-02-06T10:37:08.180Z,14.00
2023-02-06T10:39:49.972Z,14.00
2023-02-06T10:42:55.965Z,15.40
2023-02-06T10:45:50.288Z,20.00
2023-02-06T10:48:33.445Z,20.50
2023-02-06T10:51:14.314Z,13.30
2023-02-06T10:54:33.354Z,9.10
2023-02-06T10:57:00.366Z,9.10
2023-02-06T10:59:42.941Z,8.40
2023-02-06T11:02:11.177Z,9.70
2023-02-06T11:04:45.328Z,8.70
2023-02-06T11:07:26.926Z,9.00
2023-02-06T11:09:53.877Z,7.70
2023-02-06T11:12:32.975Z,8.30
2023-02-06T11:15:07.061Z,9.50
2023-02-06T11:17:34.146Z,10.00
2023-02-06T11:20:22.606Z,10.10
2023-02-06T11:22:52.995Z,9.00
2023-02-06T11:25:33.309Z,9.60
2023-02-06T11:28:00.258Z,10.40
2023-02-06T11:30:41.610Z,11.20
2023-02-06T11:33:19.816Z,10.90
2023-02-06T11:36:00.604Z,11.50
2023-02-06T11:38:29.812Z,11.70
2023-02-06T11:41:17.336Z,11.90
2023-02-06T11:43:46.335Z,12.20
2023-02-06T11:46:23.126Z,12.00
2023-02-06T11:48:55.476Z,13.20
2023-02-06T11:51:45.260Z,12.50
2023-02-06T11:54:21.729Z,11.70
2023-02-06T11:57:09.432Z,11.70
2023-02-06T11:59:38.278Z,10.70
2023-02-06T12:02:29.906Z,10.60
2023-02-06T12:05:01.704Z,9.80
2023-02-06T12:07:37.898Z,9.50
2023-02-06T12:10:17.111Z,10.40
2023-02-06T12:12:49.160Z,9.60
2023-02-06T12:15:45.414Z,9.90
2023-02-06T12:18:20.473Z,9.20
2023-02-06T12:21:03.451Z,9.60
2023-02-06T12:23:48.647Z,9.50
2023-02-06T12:26:20.294Z,10.40
2023-02-06T12:29:08.969Z,11.00
2023-02-06T12:31:42.369Z,12.30
2023-02-06T12:34:59.788Z,11.40
2023-02-06T12:37:47.600Z,11.50
2023-02-06T12:40:43.103Z,11.00
2023-02-06T12:43:15.351Z,9.80
2023-02-06T12:45:49.832Z,10.40
2023-02-06T12:48:18.422Z,10.70
2023-02-06T12:51:12.859Z,10.30
2023-02-06T12:53:46.026Z,10.60
2023-02-06T12:56:32.651Z,9.40
2023-02-06T12:59:14.708Z,9.80
2023-02-06T13:01:56.277Z,9.90
2023-02-06T13:04:27.410Z,10.10
2023-02-06T13:06:58.969Z,10.30
2023-02-06T13:09:31.718Z,9.60
2023-02-06T13:12:20.318Z,9.40
2023-02-06T13:14:59.321Z,9.80
2023-02-06T13:17:38.654Z,10.20
2023-02-06T13:20:14.960Z,10.30
2023-02-06T13:22:53.844Z,10.10
2023-02-06T13:25:31.982Z,10.30
2023-02-06T13:28:22.017Z,11.40
2023-02-06T13:30:59.398Z,10.00
2023-02-06T13:33:38.921Z,10.40
2023-02-06T13:36:16.689Z,10.00
2023-02-06T13:38:43.327Z,10.70
2023-02-06T13:41:15.671Z,10.50
2023-02-06T13:43:58.404Z,10.40
2023-02-06T13:46:32.789Z,10.60
2023-02-06T13:49:20.283Z,10.70
2023-02-06T13:52:18.302Z,11.40
2023-02-06T13:55:06.471Z,11.10
2023-02-06T13:58:12.251Z,10.80
2023-02-06T14:00:42.548Z,11.60
2023-02-06T14:03:33.460Z,11.70
2023-02-06T14:06:15.078Z,11.10
2023-02-06T14:09:16.136Z,11.80
2023-02-06T14:12:43.780Z,11.10
2023-02-06T14:15:35.742Z,11.80
2023-02-06T14:18:43.026Z,11.80
2023-02-06T14:21:34.740Z,11.40
2023-02-06T14:24:16.367Z,10.30
2023-02-06T14:27:26.871Z,11.30
2023-02-06T14:30:32.868Z,10.50
2023-02-06T14:33:53.311Z,11.30
2023-02-06T14:36:53.462Z,11.60
2023-02-06T14:39:47.430Z,11.70
2023-02-06T14:42:38.049Z,11.60
2023-02-06T14:45:18.078Z,11.30
2023-02-06T14:47:44.608Z,10.50
2023-02-06T14:50:27.229Z,12.40
2023-02-06T14:53:02.194Z,12.70
2023-02-06T14:55:33.237Z,11.60
2023-02-06T14:57:59.921Z,20.50
2023-02-06T15:00:28.044Z,20.40
2023-02-06T15:03:18.653Z,28.30
2023-02-06T15:05:47.318Z,28.00
2023-02-06T15:08:19.554Z,21.00
2023-02-06T15:10:46.762Z,14.80
2023-02-06T15:13:34.347Z,26.00
2023-02-06T15:16:08.702Z,35.50
2023-02-06T15:18:36.354Z,33.90
2023-02-06T15:21:06.099Z,16.20
2023-02-06T15:24:23.572Z,18.50
2023-02-06T15:27:06.152Z,16.00
2023-02-06T15:29:32.695Z,24.10
2023-02-06T15:32:21.138Z,15.30
2023-02-06T15:34:47.692Z,15.40
2023-02-06T15:37:22.588Z,14.10
2023-02-06T15:39:49.733Z,17.50
2023-02-06T15:42:16.436Z,23.80
2023-02-06T15:44:43.120Z,59.00
2023-02-06T15:47:14.365Z,42.40
2023-02-06T15:49:47.372Z,35.00
2023-02-06T15:52:34.663Z,34.70
2023-02-06T15:55:02.301Z,35.80
2023-02-06T15:57:38.106Z,35.60
2023-02-06T16:00:08.938Z,32.50
2023-02-06T16:02:37.134Z,31.70
2023-02-06T16:05:05.973Z,30.90
2023-02-06T16:07:35.435Z,33.40
2023-02-06T16:10:07.933Z,33.50
2023-02-06T16:12:36.784Z,33.30
2023-02-06T16:15:40.279Z,34.60
2023-02-06T16:18:28.624Z,62.20
2023-02-06T16:21:16.398Z,65.30
2023-02-06T16:23:59.467Z,90.30
2023-02-06T16:29:14.728Z,58.70
2023-02-06T16:31:43.805Z,51.80
2023-02-06T16:34:38.309Z,42.70
2023-02-06T16:37:11.341Z,41.00
2023-02-06T16:39:41.746Z,38.50
2023-02-06T16:42:35.567Z,36.20
2023-02-06T16:45:17.218Z,38.40
2023-02-06T16:47:44.011Z,63.60
2023-02-06T16:50:14.088Z,72.10
2023-02-06T16:52:47.735Z,76.40
2023-02-06T16:55:20.881Z,73.60
2023-02-06T16:57:52.737Z,64.30
2023-02-06T17:00:24.058Z,69.50
2023-02-06T17:02:52.487Z,64.00
2023-02-06T17:05:21.773Z,57.60
2023-02-06T17:07:48.975Z,53.50
2023-02-06T17:10:24.492Z,56.80
2023-02-06T17:12:52.611Z,56.90
2023-02-06T17:15:20.673Z,79.60
2023-02-06T17:17:48.993Z,72.70
2023-02-06T17:20:31.623Z,63.30
2023-02-06T17:22:58.479Z,61.30
2023-02-06T17:25:25.730Z,60.60
2023-02-06T17:27:52.971Z,75.80
2023-02-06T17:30:22.517Z,86.70
2023-02-06T17:32:49.206Z,87.80
2023-02-06T17:35:16.970Z,83.50
2023-02-06T17:37:43.642Z,73.40
2023-02-06T17:40:22.671Z,75.00
2023-02-06T17:42:49.871Z,67.80
2023-02-06T17:45:16.779Z,71.60
2023-02-06T17:47:43.746Z,72.50
2023-02-06T17:50:17.804Z,70.60
2023-02-06T17:52:44.490Z,73.50
2023-02-06T17:55:11.613Z,73.10
2023-02-06T17:57:38.715Z,75.60
2023-02-06T18:00:12.596Z,81.60
2023-02-06T18:05:07.290Z,81.60
2023-02-06T18:07:35.401Z,71.40
2023-02-06T18:10:01.999Z,59.10
2023-02-06T18:12:28.563Z,49.00
2023-02-06T18:14:55.106Z,56.00
2023-02-06T18:17:22.430Z,64.00
2023-02-06T18:19:50.086Z,67.90
2023-02-06T18:22:21.448Z,66.30
2023-02-06T18:24:49.378Z,94.30
2023-02-06T18:27:18.059Z,106.20
2023-02-06T18:29:51.986Z,101.50
2023-02-06T18:32:19.214Z,97.50
2023-02-06T18:34:46.326Z,102.20
2023-02-06T18:37:13.107Z,111.70
2023-02-06T18:39:39.672Z,113.00
2023-02-06T18:42:24.843Z,113.60
2023-02-06T18:44:51.397Z,107.40
2023-02-06T18:47:19.113Z,103.80
2023-02-06T18:49:46.390Z,96.20
2023-02-06T18:52:13.559Z,94.20
2023-02-06T18:54:40.349Z,93.20
2023-02-06T18:57:07.066Z,98.40
2023-02-06T18:59:34.384Z,100.40
2023-02-06T19:02:01.654Z,102.20
2023-02-06T19:04:28.520Z,103.80
2023-02-06T19:06:55.115Z,100.70
2023-02-06T19:09:21.900Z,106.50
2023-02-06T19:11:51.182Z,97.00
2023-02-06T19:14:23.070Z,80.60
2023-02-06T19:16:51.906Z,81.30
2023-02-06T19:19:21.831Z,83.90
2023-02-06T19:21:48.380Z,88.30
2023-02-06T19:24:19.754Z,82.00
2023-02-06T19:26:46.441Z,76.80
2023-02-06T19:29:19.324Z,76.40
2023-02-06T19:31:50.524Z,72.70
2023-02-06T19:34:17.303Z,75.00
2023-02-06T19:36:44.033Z,70.40
2023-02-06T19:39:12.393Z,72.80
2023-02-06T19:41:39.375Z,72.20
2023-02-06T19:44:11.954Z,69.40
2023-02-06T19:46:39.540Z,62.40
2023-02-06T19:49:08.122Z,62.70
2023-02-06T19:51:40.174Z,64.50
2023-02-06T19:54:07.082Z,70.50
2023-02-06T19:56:43.475Z,63.50
2023-02-06T19:59:18.813Z,57.70
2023-02-06T20:01:50.583Z,55.70
2023-02-06T20:04:19.349Z,53.40
2023-02-06T20:06:46.268Z,51.50
2023-02-06T20:09:14.558Z,48.40
2023-02-06T20:11:42.168Z,41.40
2023-02-06T20:14:10.213Z,45.50
2023-02-06T20:16:39.387Z,44.10
2023-02-06T20:19:14.842Z,41.50
2023-02-06T20:21:45.651Z,39.10
2023-02-06T20:24:20.062Z,41.40
2023-02-06T20:26:49.299Z,39.80
2023-02-06T20:29:37.925Z,40.10
2023-02-06T20:32:06.308Z,39.00
2023-02-06T20:34:34.110Z,43.80
2023-02-06T20:37:01.063Z,40.60
2023-02-06T20:39:28.726Z,39.90
2023-02-06T20:41:55.515Z,38.10
2023-02-06T20:44:22.009Z,40.00
2023-02-06T20:46:48.994Z,37.80
2023-02-06T20:49:23.009Z,39.90
2023-02-06T20:51:49.929Z,38.50
2023-02-06T20:54:18.267Z,40.00
2023-02-06T20:56:45.184Z,39.20
2023-02-06T20:59:14.404Z,41.10
2023-02-06T21:01:41.780Z,40.50
2023-02-06T21:04:11.409Z,38.90
2023-02-06T21:06:38.475Z,39.10
2023-02-06T21:09:06.534Z,39.80
2023-02-06T21:11:39.290Z,38.10
2023-02-06T21:16:34.038Z,33.50
2023-02-06T21:19:01.305Z,37.10
2023-02-06T21:21:28.185Z,37.90
2023-02-06T21:23:57.390Z,35.30
2023-02-06T21:26:25.406Z,37.10
2023-02-06T21:28:53.122Z,38.00
2023-02-06T21:31:24.132Z,36.20
2023-02-06T21:33:51.655Z,39.30
2023-02-06T21:36:20.361Z,42.30
2023-02-06T21:38:46.864Z,39.60
2023-02-06T21:41:16.880Z,45.60
2023-02-06T21:43:44.115Z,41.00
2023-02-06T21:46:12.202Z,40.40
2023-02-06T21:48:39.790Z,40.70
2023-02-06T21:51:12.020Z,39.50
2023-02-06T21:53:39.188Z,39.50
2023-02-06T21:56:19.681Z,42.50
2023-02-06T21:58:47.401Z,39.60
2023-02-06T22:01:21.668Z,39.10
2023-02-06T22:03:48.685Z,37.70
2023-02-06T22:06:15.908Z,39.50
2023-02-06T22:08:47.356Z,40.70
2023-02-06T22:11:24.270Z,41.60
2023-02-06T22:13:52.672Z,37.80
2023-02-06T22:16:21.748Z,39.10
2023-02-06T22:18:49.011Z,39.00
2023-02-06T22:21:19.909Z,38.20
2023-02-06T22:23:48.428Z,40.30
2023-02-06T22:26:17.359Z,42.40
2023-02-06T22:28:44.385Z,41.20
2023-02-06T22:31:23.822Z,41.00
2023-02-06T22:33:51.647Z,40.80
2023-02-06T22:36:22.054Z,40.80
2023-02-06T22:38:57.022Z,42.00
2023-02-06T22:41:23.571Z,39.40
2023-02-06T22:43:50.711Z,41.30
2023-02-06T22:46:38.384Z,40.20
2023-02-06T22:49:07.122Z,39.70
2023-02-06T22:51:34.944Z,40.50
2023-02-06T22:54:01.949Z,40.50
2023-02-06T22:56:36.069Z,38.40
2023-02-06T22:59:09.669Z,40.10
2023-02-06T23:01:40.481Z,39.30
2023-02-06T23:04:12.237Z,40.90
2023-02-06T23:06:39.488Z,39.70
2023-02-06T23:09:08.323Z,42.80
2023-02-06T23:11:35.331Z,39.80
2023-02-06T23:14:05.527Z,39.10
2023-02-06T23:16:34.038Z,41.50
2023-02-06T23:19:03.915Z,40.10
2023-02-06T23:21:33.320Z,42.40
2023-02-06T23:24:00.238Z,42.00
2023-02-06T23:26:27.172Z,43.40
2023-02-06T23:28:57.315Z,43.60
2023-02-06T23:31:25.268Z,46.20
2023-02-06T23:33:52.351Z,43.80
2023-02-06T23:36:22.960Z,45.80
2023-02-06T23:38:50.082Z,44.50
2023-02-06T23:41:19.112Z,47.70
2023-02-06T23:43:56.901Z,44.70
2023-02-06T23:46:24.402Z,44.50
2023-02-06T23:48:51.429Z,46.60
2023-02-06T23:51:19.896Z,47.10
2023-02-06T23:53:47.434Z,47.10
2023-02-06T23:56:18.677Z,46.70
2023-02-06T23:58:45.354Z,45.10
